sensor_id;sensor_type;location;lat;lon;timestamp;temperature;humidity
55008;DHT22;40902;45.116;21.296;2023-01-19T00:00:14;307.70;2304.00
55008;DHT22;40902;45.116;21.296;2023-01-19T00:02:42;307.80;2304.00
55008;DHT22;40902;45.116;21.296;2023-01-19T00:05:10;307.80;2304.00
55008;DHT22;40902;45.116;21.296;2023-01-19T00:07:37;307.80;2304.00
55008;DHT22;40902;45.116;21.296;2023-01-19T00:10:03;307.80;2304.00
55008;DHT22;40902;45.116;21.296;2023-01-19T00:12:29;307.80;2304.00
55008;DHT22;40902;45.116;21.296;2023-01-19T00:14:54;307.80;2304.00
55008;DHT22;40902;45.116;21.296;2023-01-19T00:17:20;307.80;2304.00
55008;DHT22;40902;45.116;21.296;2023-01-19T00:19:46;307.80;2304.00
55008;DHT22;40902;45.116;21.296;2023-01-19T00:22:11;307.80;2304.00
55008;DHT22;40902;45.116;21.296;2023-01-19T00:24:37;307.80;2304.00
55008;DHT22;40902;45.116;21.296;2023-01-19T00:27:03;307.80;2304.00
55008;DHT22;40902;45.116;21.296;2023-01-19T00:29:29;307.90;2304.00
55008;DHT22;40902;45.116;21.296;2023-01-19T00:32:03;307.90;2304.00
55008;DHT22;40902;45.116;21.296;2023-01-19T00:34:29;307.90;2304.00
55008;DHT22;40902;45.116;21.296;2023-01-19T00:37:05;307.90;2304.00
55008;DHT22;40902;45.116;21.296;2023-01-19T00:39:31;307.90;2304.00
55008;DHT22;40902;45.116;21.296;2023-01-19T00:41:56;307.90;2304.00
55008;DHT22;40902;45.116;21.296;2023-01-19T00:44:40;307.90;2304.00
55008;DHT22;40902;45.116;21.296;2023-01-19T00:47:06;307.90;2304.00
55008;DHT22;40902;45.116;21.296;2023-01-19T00:49:32;307.90;2304.00
55008;DHT22;40902;45.116;21.296;2023-01-19T00:51:58;307.80;2304.00
55008;DHT22;40902;45.116;21.296;2023-01-19T00:54:23;307.90;2304.00
55008;DHT22;40902;45.116;21.296;2023-01-19T00:56:49;307.80;2304.00
55008;DHT22;40902;45.116;21.296;2023-01-19T00:59:15;307.90;2304.00
55008;DHT22;40902;45.116;21.296;2023-01-19T01:01:40;307.90;2304.00
55008;DHT22;40902;45.116;21.296;2023-01-19T01:04:06;307.90;2304.00
55008;DHT22;40902;45.116;21.296;2023-01-19T01:06:32;307.90;2304.00
55008;DHT22;40902;45.116;21.296;2023-01-19T01:08:58;307.90;2304.00
55008;DHT22;40902;45.116;21.296;2023-01-19T01:11:23;307.90;2304.00
55008;DHT22;40902;45.116;21.296;2023-01-19T01:13:49;307.90;2304.00
55008;DHT22;40902;45.116;21.296;2023-01-19T01:16:15;307.90;2304.00
55008;DHT22;40902;45.116;21.296;2023-01-19T01:18:42;307.80;2304.00
55008;DHT22;40902;45.116;21.296;2023-01-19T01:21:09;307.80;2304.00
55008;DHT22;40902;45.116;21.296;2023-01-19T01:23:34;307.80;2304.00
55008;DHT22;40902;45.116;21.296;2023-01-19T01:26:00;307.80;2304.00
55008;DHT22;40902;45.116;21.296;2023-01-19T01:28:26;307.80;2304.00
55008;DHT22;40902;45.116;21.296;2023-01-19T01:30:53;307.80;2304.00
55008;DHT22;40902;45.116;21.296;2023-01-19T01:33:19;307.80;2304.00
55008;DHT22;40902;45.116;21.296;2023-01-19T01:35:44;307.90;2304.00
55008;DHT22;40902;45.116;21.296;2023-01-19T01:38:10;307.90;2304.00
55008;DHT22;40902;45.116;21.296;2023-01-19T01:40:39;307.90;2304.00
55008;DHT22;40902;45.116;21.296;2023-01-19T01:43:11;307.90;2304.00
55008;DHT22;40902;45.116;21.296;2023-01-19T01:45:39;307.90;2304.00
55008;DHT22;40902;45.116;21.296;2023-01-19T01:48:11;307.90;2304.00
55008;DHT22;40902;45.116;21.296;2023-01-19T01:51:07;307.90;2304.00
55008;DHT22;40902;45.116;21.296;2023-01-19T01:54:05;308.00;2304.00
55008;DHT22;40902;45.116;21.296;2023-01-19T01:56:41;307.90;2304.00
55008;DHT22;40902;45.116;21.296;2023-01-19T01:59:29;307.90;2304.00
55008;DHT22;40902;45.116;21.296;2023-01-19T02:02:03;307.90;2304.00
55008;DHT22;40902;45.116;21.296;2023-01-19T02:04:55;307.90;2304.00
55008;DHT22;40902;45.116;21.296;2023-01-19T02:07:45;307.90;2304.00
55008;DHT22;40902;45.116;21.296;2023-01-19T02:10:30;307.90;2304.00
55008;DHT22;40902;45.116;21.296;2023-01-19T02:13:15;307.80;2304.00
55008;DHT22;40902;45.116;21.296;2023-01-19T02:15:49;307.80;2304.00
55008;DHT22;40902;45.116;21.296;2023-01-19T02:18:16;307.80;2304.00
55008;DHT22;40902;45.116;21.296;2023-01-19T02:21:13;307.70;2304.00
55008;DHT22;40902;45.116;21.296;2023-01-19T02:23:48;307.70;2304.00
55008;DHT22;40902;45.116;21.296;2023-01-19T02:28:49;307.70;2304.00
55008;DHT22;40902;45.116;21.296;2023-01-19T02:31:17;307.70;2304.00
55008;DHT22;40902;45.116;21.296;2023-01-19T02:33:43;307.70;2304.00
55008;DHT22;40902;45.116;21.296;2023-01-19T02:36:10;307.70;2304.00
55008;DHT22;40902;45.116;21.296;2023-01-19T02:38:38;307.70;2304.00
55008;DHT22;40902;45.116;21.296;2023-01-19T02:41:06;307.70;2304.00
55008;DHT22;40902;45.116;21.296;2023-01-19T02:43:34;307.70;2304.00
55008;DHT22;40902;45.116;21.296;2023-01-19T02:46:00;307.80;2304.00
55008;DHT22;40902;45.116;21.296;2023-01-19T02:48:27;307.80;2304.00
55008;DHT22;40902;45.116;21.296;2023-01-19T02:50:58;307.80;2304.00
55008;DHT22;40902;45.116;21.296;2023-01-19T03:04:55;307.70;2304.00
55008;DHT22;40902;45.116;21.296;2023-01-19T03:07:46;307.60;2304.00
55008;DHT22;40902;45.116;21.296;2023-01-19T03:15:54;307.50;2304.00
55008;DHT22;40902;45.116;21.296;2023-01-19T03:18:24;307.50;2304.00
55008;DHT22;40902;45.116;21.296;2023-01-19T03:20:54;307.50;2304.00
55008;DHT22;40902;45.116;21.296;2023-01-19T03:23:21;307.50;2304.00
55008;DHT22;40902;45.116;21.296;2023-01-19T03:25:50;307.40;2304.00
55008;DHT22;40902;45.116;21.296;2023-01-19T03:28:19;307.40;2304.00
55008;DHT22;40902;45.116;21.296;2023-01-19T03:30:53;307.50;2304.00
55008;DHT22;40902;45.116;21.296;2023-01-19T03:33:36;307.50;2304.00
55008;DHT22;40902;45.116;21.296;2023-01-19T03:36:11;307.50;2304.00
55008;DHT22;40902;45.116;21.296;2023-01-19T03:38:40;307.50;2304.00
55008;DHT22;40902;45.116;21.296;2023-01-19T03:41:10;307.40;2304.00
55008;DHT22;40902;45.116;21.296;2023-01-19T03:43:40;307.50;2304.00
55008;DHT22;40902;45.116;21.296;2023-01-19T03:46:07;307.40;2304.00
55008;DHT22;40902;45.116;21.296;2023-01-19T03:48:36;307.40;2304.00
55008;DHT22;40902;45.116;21.296;2023-01-19T03:51:07;307.50;2304.00
55008;DHT22;40902;45.116;21.296;2023-01-19T03:53:33;307.50;2304.00
55008;DHT22;40902;45.116;21.296;2023-01-19T03:55:59;307.40;2304.00
55008;DHT22;40902;45.116;21.296;2023-01-19T03:58:25;307.40;2304.00
55008;DHT22;40902;45.116;21.296;2023-01-19T04:00:52;307.40;2304.00
55008;DHT22;40902;45.116;21.296;2023-01-19T04:03:18;307.40;2304.00
55008;DHT22;40902;45.116;21.296;2023-01-19T04:05:44;307.40;2304.00
55008;DHT22;40902;45.116;21.296;2023-01-19T04:08:10;307.40;2304.00
55008;DHT22;40902;45.116;21.296;2023-01-19T04:10:36;307.40;2304.00
55008;DHT22;40902;45.116;21.296;2023-01-19T04:13:03;307.30;2304.00
55008;DHT22;40902;45.116;21.296;2023-01-19T04:15:29;307.20;2304.00
55008;DHT22;40902;45.116;21.296;2023-01-19T04:17:59;307.20;2304.00
55008;DHT22;40902;45.116;21.296;2023-01-19T04:20:26;282.50;2278.40
55008;DHT22;40902;45.116;21.296;2023-01-19T04:22:53;307.20;2304.00
55008;DHT22;40902;45.116;21.296;2023-01-19T04:25:20;307.20;2304.00
55008;DHT22;40902;45.116;21.296;2023-01-19T04:27:46;282.50;2278.40
55008;DHT22;40902;45.116;21.296;2023-01-19T04:30:15;282.50;2278.40
55008;DHT22;40902;45.116;21.296;2023-01-19T04:32:41;307.20;2304.00
55008;DHT22;40902;45.116;21.296;2023-01-19T04:35:07;282.50;2278.40
55008;DHT22;40902;45.116;21.296;2023-01-19T04:37:32;307.20;2304.00
55008;DHT22;40902;45.116;21.296;2023-01-19T04:39:58;282.50;2278.40
55008;DHT22;40902;45.116;21.296;2023-01-19T04:42:24;282.50;2278.40
55008;DHT22;40902;45.116;21.296;2023-01-19T04:44:52;282.50;2278.40
55008;DHT22;40902;45.116;21.296;2023-01-19T04:47:18;282.50;2278.40
55008;DHT22;40902;45.116;21.296;2023-01-19T04:49:44;282.50;2278.40
55008;DHT22;40902;45.116;21.296;2023-01-19T04:52:09;282.50;2278.40
55008;DHT22;40902;45.116;21.296;2023-01-19T04:54:35;282.50;2278.40
55008;DHT22;40902;45.116;21.296;2023-01-19T04:57:01;282.50;2278.40
55008;DHT22;40902;45.116;21.296;2023-01-19T04:59:27;282.50;2278.40
55008;DHT22;40902;45.116;21.296;2023-01-19T05:01:53;282.50;2278.40
55008;DHT22;40902;45.116;21.296;2023-01-19T05:04:18;282.50;2278.40
55008;DHT22;40902;45.116;21.296;2023-01-19T05:06:45;282.50;2278.40
55008;DHT22;40902;45.116;21.296;2023-01-19T05:09:11;282.50;2278.40
55008;DHT22;40902;45.116;21.296;2023-01-19T05:11:39;282.50;2278.40
55008;DHT22;40902;45.116;21.296;2023-01-19T05:14:05;282.50;2278.40
55008;DHT22;40902;45.116;21.296;2023-01-19T05:16:31;282.50;2278.40
55008;DHT22;40902;45.116;21.296;2023-01-19T05:18:59;282.40;2278.40
55008;DHT22;40902;45.116;21.296;2023-01-19T05:21:25;282.40;2278.40
55008;DHT22;40902;45.116;21.296;2023-01-19T05:23:50;282.40;2278.40
55008;DHT22;40902;45.116;21.296;2023-01-19T05:26:16;282.40;2278.40
55008;DHT22;40902;45.116;21.296;2023-01-19T05:28:42;282.40;2278.40
55008;DHT22;40902;45.116;21.296;2023-01-19T05:31:07;282.40;2278.40
55008;DHT22;40902;45.116;21.296;2023-01-19T05:33:33;282.50;2278.40
55008;DHT22;40902;45.116;21.296;2023-01-19T05:35:59;282.50;2278.40
55008;DHT22;40902;45.116;21.296;2023-01-19T05:38:25;282.40;2278.40
55008;DHT22;40902;45.116;21.296;2023-01-19T05:40:56;282.50;2278.40
55008;DHT22;40902;45.116;21.296;2023-01-19T05:43:22;282.50;2278.40
55008;DHT22;40902;45.116;21.296;2023-01-19T05:45:50;282.50;2278.40
55008;DHT22;40902;45.116;21.296;2023-01-19T05:48:15;282.50;2278.40
55008;DHT22;40902;45.116;21.296;2023-01-19T05:50:42;282.40;2278.40
55008;DHT22;40902;45.116;21.296;2023-01-19T05:53:07;282.40;2278.40
55008;DHT22;40902;45.116;21.296;2023-01-19T05:55:33;282.40;2278.40
55008;DHT22;40902;45.116;21.296;2023-01-19T05:57:59;282.50;2278.40
55008;DHT22;40902;45.116;21.296;2023-01-19T06:00:26;282.50;2278.40
55008;DHT22;40902;45.116;21.296;2023-01-19T06:02:52;282.40;2278.40
55008;DHT22;40902;45.116;21.296;2023-01-19T06:05:18;282.50;2278.40
55008;DHT22;40902;45.116;21.296;2023-01-19T06:07:43;282.50;2278.40
55008;DHT22;40902;45.116;21.296;2023-01-19T06:10:10;282.50;2278.40
55008;DHT22;40902;45.116;21.296;2023-01-19T06:12:38;282.50;2278.40
55008;DHT22;40902;45.116;21.296;2023-01-19T06:15:05;282.50;2278.40
55008;DHT22;40902;45.116;21.296;2023-01-19T06:17:31;282.50;2278.40
55008;DHT22;40902;45.116;21.296;2023-01-19T06:19:57;307.20;2304.00
55008;DHT22;40902;45.116;21.296;2023-01-19T06:22:23;307.20;2304.00
55008;DHT22;40902;45.116;21.296;2023-01-19T06:24:49;307.20;2304.00
55008;DHT22;40902;45.116;21.296;2023-01-19T06:27:15;307.20;2304.00
55008;DHT22;40902;45.116;21.296;2023-01-19T06:29:41;307.20;2304.00
55008;DHT22;40902;45.116;21.296;2023-01-19T06:32:07;307.20;2304.00
55008;DHT22;40902;45.116;21.296;2023-01-19T06:34:32;307.20;2304.00
55008;DHT22;40902;45.116;21.296;2023-01-19T06:36:58;307.20;2304.00
55008;DHT22;40902;45.116;21.296;2023-01-19T06:39:24;307.20;2304.00
55008;DHT22;40902;45.116;21.296;2023-01-19T06:41:50;307.20;2304.00
55008;DHT22;40902;45.116;21.296;2023-01-19T06:44:16;307.20;2304.00
55008;DHT22;40902;45.116;21.296;2023-01-19T06:46:41;307.20;2304.00
55008;DHT22;40902;45.116;21.296;2023-01-19T06:49:07;307.20;2304.00
55008;DHT22;40902;45.116;21.296;2023-01-19T06:51:33;307.20;2304.00
55008;DHT22;40902;45.116;21.296;2023-01-19T06:53:59;307.20;2304.00
55008;DHT22;40902;45.116;21.296;2023-01-19T06:56:25;307.20;2304.00
55008;DHT22;40902;45.116;21.296;2023-01-19T06:58:50;307.20;2304.00
55008;DHT22;40902;45.116;21.296;2023-01-19T07:01:18;307.20;2304.00
55008;DHT22;40902;45.116;21.296;2023-01-19T07:03:44;307.20;2304.00
55008;DHT22;40902;45.116;21.296;2023-01-19T07:06:09;307.20;2304.00
55008;DHT22;40902;45.116;21.296;2023-01-19T07:08:36;307.30;2304.00
55008;DHT22;40902;45.116;21.296;2023-01-19T07:11:04;307.30;2304.00
55008;DHT22;40902;45.116;21.296;2023-01-19T07:13:32;307.30;2304.00
55008;DHT22;40902;45.116;21.296;2023-01-19T07:16:04;307.40;2304.00
55008;DHT22;40902;45.116;21.296;2023-01-19T07:18:31;307.40;2304.00
55008;DHT22;40902;45.116;21.296;2023-01-19T07:20:57;307.40;2304.00
55008;DHT22;40902;45.116;21.296;2023-01-19T07:23:23;307.40;2304.00
55008;DHT22;40902;45.116;21.296;2023-01-19T07:25:49;307.50;2304.00
55008;DHT22;40902;45.116;21.296;2023-01-19T07:28:16;307.50;2304.00
55008;DHT22;40902;45.116;21.296;2023-01-19T07:30:43;307.60;2304.00
55008;DHT22;40902;45.116;21.296;2023-01-19T07:33:10;307.60;2304.00
55008;DHT22;40902;45.116;21.296;2023-01-19T07:35:36;307.60;2304.00
55008;DHT22;40902;45.116;21.296;2023-01-19T07:38:02;307.70;2304.00
55008;DHT22;40902;45.116;21.296;2023-01-19T07:40:28;307.70;2304.00
55008;DHT22;40902;45.116;21.296;2023-01-19T07:42:54;307.70;2304.00
55008;DHT22;40902;45.116;21.296;2023-01-19T07:45:20;307.80;2304.00
55008;DHT22;40902;45.116;21.296;2023-01-19T07:47:47;307.80;2304.00
55008;DHT22;40902;45.116;21.296;2023-01-19T07:50:16;307.80;2304.00
55008;DHT22;40902;45.116;21.296;2023-01-19T07:52:45;307.90;2304.00
55008;DHT22;40902;45.116;21.296;2023-01-19T07:55:11;307.90;2304.00
55008;DHT22;40902;45.116;21.296;2023-01-19T07:57:37;308.00;2304.00
55008;DHT22;40902;45.116;21.296;2023-01-19T08:00:03;308.00;2304.00
55008;DHT22;40902;45.116;21.296;2023-01-19T08:02:30;308.10;2304.00
55008;DHT22;40902;45.116;21.296;2023-01-19T08:04:58;332.80;2329.60
55008;DHT22;40902;45.116;21.296;2023-01-19T08:07:24;332.80;2329.60
55008;DHT22;40902;45.116;21.296;2023-01-19T08:09:50;332.80;2329.60
55008;DHT22;40902;45.116;21.296;2023-01-19T08:12:15;332.90;2329.60
55008;DHT22;40902;45.116;21.296;2023-01-19T08:14:41;332.80;2329.60
55008;DHT22;40902;45.116;21.296;2023-01-19T08:17:11;332.80;2329.60
55008;DHT22;40902;45.116;21.296;2023-01-19T08:19:38;332.90;2329.60
55008;DHT22;40902;45.116;21.296;2023-01-19T08:22:04;332.90;2329.60
55008;DHT22;40902;45.116;21.296;2023-01-19T08:24:30;332.80;2329.60
55008;DHT22;40902;45.116;21.296;2023-01-19T08:27:00;332.90;2329.60
55008;DHT22;40902;45.116;21.296;2023-01-19T08:29:27;332.90;2329.60
55008;DHT22;40902;45.116;21.296;2023-01-19T08:31:55;332.90;2329.60
55008;DHT22;40902;45.116;21.296;2023-01-19T08:34:23;332.90;2329.60
55008;DHT22;40902;45.116;21.296;2023-01-19T08:36:48;333.00;2329.60
55008;DHT22;40902;45.116;21.296;2023-01-19T08:39:14;333.00;2329.60
55008;DHT22;40902;45.116;21.296;2023-01-19T08:41:42;333.00;2329.60
55008;DHT22;40902;45.116;21.296;2023-01-19T08:44:08;333.10;2329.60
55008;DHT22;40902;45.116;21.296;2023-01-19T08:46:34;333.10;2329.60
55008;DHT22;40902;45.116;21.296;2023-01-19T08:48:59;333.10;2329.60
55008;DHT22;40902;45.116;21.296;2023-01-19T08:51:25;333.10;2329.60
55008;DHT22;40902;45.116;21.296;2023-01-19T08:53:51;333.10;2329.60
55008;DHT22;40902;45.116;21.296;2023-01-19T08:56:16;333.10;2329.60
55008;DHT22;40902;45.116;21.296;2023-01-19T08:58:43;333.10;2329.60
55008;DHT22;40902;45.116;21.296;2023-01-19T09:01:10;333.10;2329.60
55008;DHT22;40902;45.116;21.296;2023-01-19T09:03:42;333.20;2329.60
55008;DHT22;40902;45.116;21.296;2023-01-19T09:06:09;333.20;2329.60
55008;DHT22;40902;45.116;21.296;2023-01-19T09:08:36;333.20;2329.60
55008;DHT22;40902;45.116;21.296;2023-01-19T09:11:01;333.30;2329.60
55008;DHT22;40902;45.116;21.296;2023-01-19T09:13:28;333.30;2329.60
55008;DHT22;40902;45.116;21.296;2023-01-19T09:15:53;333.30;2329.60
55008;DHT22;40902;45.116;21.296;2023-01-19T09:18:20;333.30;2329.60
55008;DHT22;40902;45.116;21.296;2023-01-19T09:20:49;333.30;2329.60
55008;DHT22;40902;45.116;21.296;2023-01-19T09:23:19;333.30;2329.60
55008;DHT22;40902;45.116;21.296;2023-01-19T09:25:46;333.40;2329.60
55008;DHT22;40902;45.116;21.296;2023-01-19T09:28:14;333.40;2329.60
55008;DHT22;40902;45.116;21.296;2023-01-19T09:30:41;333.40;2329.60
55008;DHT22;40902;45.116;21.296;2023-01-19T09:33:09;333.40;2329.60
55008;DHT22;40902;45.116;21.296;2023-01-19T09:35:36;333.40;2329.60
55008;DHT22;40902;45.116;21.296;2023-01-19T09:38:02;333.50;2329.60
55008;DHT22;40902;45.116;21.296;2023-01-19T09:40:29;333.50;2329.60
55008;DHT22;40902;45.116;21.296;2023-01-19T09:42:59;333.60;2329.60
55008;DHT22;40902;45.116;21.296;2023-01-19T09:48:55;358.40;2329.60
55008;DHT22;40902;45.116;21.296;2023-01-19T09:51:24;333.70;2329.60
55008;DHT22;40902;45.116;21.296;2023-01-19T09:56:31;358.40;2329.60
55008;DHT22;40902;45.116;21.296;2023-01-19T09:58:58;358.50;2329.60
55008;DHT22;40902;45.116;21.296;2023-01-19T10:05:01;358.50;2329.60
55008;DHT22;40902;45.116;21.296;2023-01-19T10:10:21;358.60;2329.60
55008;DHT22;40902;45.116;21.296;2023-01-19T10:12:56;358.60;2329.60
55008;DHT22;40902;45.116;21.296;2023-01-19T10:15:29;358.70;2329.60
55008;DHT22;40902;45.116;21.296;2023-01-19T10:20:52;358.70;2329.60
55008;DHT22;40902;45.116;21.296;2023-01-19T10:25:53;358.80;2329.60
55008;DHT22;40902;45.116;21.296;2023-01-19T10:28:23;358.80;2329.60
55008;DHT22;40902;45.116;21.296;2023-01-19T10:30:53;358.80;2329.60
55008;DHT22;40902;45.116;21.296;2023-01-19T10:33:19;358.80;2329.60
55008;DHT22;40902;45.116;21.296;2023-01-19T10:35:44;358.80;2329.60
55008;DHT22;40902;45.116;21.296;2023-01-19T10:38:14;358.80;2329.60
55008;DHT22;40902;45.116;21.296;2023-01-19T10:40:56;358.80;2329.60
55008;DHT22;40902;45.116;21.296;2023-01-19T10:46:14;358.80;2329.60
55008;DHT22;40902;45.116;21.296;2023-01-19T10:48:42;358.70;2329.60
55008;DHT22;40902;45.116;21.296;2023-01-19T10:51:09;358.80;2329.60
55008;DHT22;40902;45.116;21.296;2023-01-19T10:53:35;358.80;2329.60
55008;DHT22;40902;45.116;21.296;2023-01-19T10:56:16;358.70;2329.60
55008;DHT22;40902;45.116;21.296;2023-01-19T10:58:45;358.70;2329.60
55008;DHT22;40902;45.116;21.296;2023-01-19T11:01:19;358.80;2329.60
55008;DHT22;40902;45.116;21.296;2023-01-19T11:03:46;358.80;2329.60
55008;DHT22;40902;45.116;21.296;2023-01-19T11:08:38;358.70;2329.60
55008;DHT22;40902;45.116;21.296;2023-01-19T11:11:04;358.70;2329.60
55008;DHT22;40902;45.116;21.296;2023-01-19T11:13:33;358.70;2329.60
55008;DHT22;40902;45.116;21.296;2023-01-19T11:18:40;358.70;2329.60
55008;DHT22;40902;45.116;21.296;2023-01-19T11:21:12;358.70;2329.60
55008;DHT22;40902;45.116;21.296;2023-01-19T11:23:50;358.60;2329.60
55008;DHT22;40902;45.116;21.296;2023-01-19T11:26:26;358.70;2329.60
55008;DHT22;40902;45.116;21.296;2023-01-19T11:28:54;358.70;2329.60
55008;DHT22;40902;45.116;21.296;2023-01-19T11:33:56;358.80;2329.60
55008;DHT22;40902;45.116;21.296;2023-01-19T11:36:30;358.80;2329.60
55008;DHT22;40902;45.116;21.296;2023-01-19T11:38:59;358.80;2329.60
55008;DHT22;40902;45.116;21.296;2023-01-19T11:41:28;358.90;2329.60
55008;DHT22;40902;45.116;21.296;2023-01-19T11:44:15;358.80;2329.60
55008;DHT22;40902;45.116;21.296;2023-01-19T11:46:44;358.80;2329.60
55008;DHT22;40902;45.116;21.296;2023-01-19T11:49:26;358.80;2329.60
55008;DHT22;40902;45.116;21.296;2023-01-19T11:54:23;358.80;2329.60
55008;DHT22;40902;45.116;21.296;2023-01-19T11:56:52;358.70;2329.60
55008;DHT22;40902;45.116;21.296;2023-01-19T11:59:20;358.70;2329.60
55008;DHT22;40902;45.116;21.296;2023-01-19T12:01:52;358.70;2329.60
55008;DHT22;40902;45.116;21.296;2023-01-19T12:04:29;358.70;2329.60
55008;DHT22;40902;45.116;21.296;2023-01-19T12:06:56;358.70;2329.60
55008;DHT22;40902;45.116;21.296;2023-01-19T12:09:44;358.80;2329.60
55008;DHT22;40902;45.116;21.296;2023-01-19T12:12:24;358.70;2329.60
55008;DHT22;40902;45.116;21.296;2023-01-19T12:17:32;358.80;2329.60
55008;DHT22;40902;45.116;21.296;2023-01-19T12:20:16;358.70;2329.60
55008;DHT22;40902;45.116;21.296;2023-01-19T12:28:07;358.60;2329.60
55008;DHT22;40902;45.116;21.296;2023-01-19T12:30:35;358.60;2329.60
55008;DHT22;40902;45.116;21.296;2023-01-19T12:33:39;358.60;2329.60
55008;DHT22;40902;45.116;21.296;2023-01-19T12:41:30;358.50;2329.60
55008;DHT22;40902;45.116;21.296;2023-01-19T12:54:35;333.70;2329.60
55008;DHT22;40902;45.116;21.296;2023-01-19T12:57:07;333.70;2329.60
55008;DHT22;40902;45.116;21.296;2023-01-19T12:59:35;333.70;2329.60
55008;DHT22;40902;45.116;21.296;2023-01-19T13:02:40;333.70;2329.60
55008;DHT22;40902;45.116;21.296;2023-01-19T13:13:22;333.70;2329.60
55008;DHT22;40902;45.116;21.296;2023-01-19T13:15:49;333.70;2329.60
55008;DHT22;40902;45.116;21.296;2023-01-19T13:20:53;333.70;2329.60
55008;DHT22;40902;45.116;21.296;2023-01-19T13:23:26;333.70;2329.60
55008;DHT22;40902;45.116;21.296;2023-01-19T13:26:03;333.70;2329.60
55008;DHT22;40902;45.116;21.296;2023-01-19T13:28:43;333.70;2329.60
55008;DHT22;40902;45.116;21.296;2023-01-19T13:31:10;333.70;2329.60
55008;DHT22;40902;45.116;21.296;2023-01-19T13:33:48;333.60;2329.60
55008;DHT22;40902;45.116;21.296;2023-01-19T13:36:32;333.50;2329.60
55008;DHT22;40902;45.116;21.296;2023-01-19T13:39:02;333.40;2329.60
55008;DHT22;40902;45.116;21.296;2023-01-19T13:41:30;333.20;2329.60
55008;DHT22;40902;45.116;21.296;2023-01-19T13:44:07;333.20;2329.60
55008;DHT22;40902;45.116;21.296;2023-01-19T13:46:35;333.20;2329.60
55008;DHT22;40902;45.116;21.296;2023-01-19T13:49:25;332.80;2329.60
55008;DHT22;40902;45.116;21.296;2023-01-19T13:54:49;308.10;2304.00
55008;DHT22;40902;45.116;21.296;2023-01-19T13:57:29;332.80;2329.60
55008;DHT22;40902;45.116;21.296;2023-01-19T14:02:58;333.00;2329.60
55008;DHT22;40902;45.116;21.296;2023-01-19T14:10:31;333.30;2329.60
55008;DHT22;40902;45.116;21.296;2023-01-19T14:13:20;333.40;2329.60
55008;DHT22;40902;45.116;21.296;2023-01-19T14:15:49;333.40;2329.60
55008;DHT22;40902;45.116;21.296;2023-01-19T14:26:03;333.50;2329.60
55008;DHT22;40902;45.116;21.296;2023-01-19T14:28:35;333.60;2329.60
55008;DHT22;40902;45.116;21.296;2023-01-19T14:31:24;333.60;2329.60
55008;DHT22;40902;45.116;21.296;2023-01-19T14:33:54;333.60;2329.60
55008;DHT22;40902;45.116;21.296;2023-01-19T14:36:36;333.60;2329.60
55008;DHT22;40902;45.116;21.296;2023-01-19T14:39:04;333.60;2329.60
55008;DHT22;40902;45.116;21.296;2023-01-19T14:41:42;333.60;2329.60
55008;DHT22;40902;45.116;21.296;2023-01-19T14:44:10;333.50;2329.60
55008;DHT22;40902;45.116;21.296;2023-01-19T14:46:45;333.30;2329.60
55008;DHT22;40902;45.116;21.296;2023-01-19T14:49:18;333.10;2329.60
55008;DHT22;40902;45.116;21.296;2023-01-19T14:51:46;308.00;2304.00
55008;DHT22;40902;45.116;21.296;2023-01-19T14:54:18;307.40;2304.00
55008;DHT22;40902;45.116;21.296;2023-01-19T14:56:48;307.20;2304.00
55008;DHT22;40902;45.116;21.296;2023-01-19T14:59:17;282.50;2278.40
55008;DHT22;40902;45.116;21.296;2023-01-19T15:01:43;282.40;2278.40
55008;DHT22;40902;45.116;21.296;2023-01-19T15:04:09;282.00;2278.40
55008;DHT22;40902;45.116;21.296;2023-01-19T15:06:38;256.90;2252.80
55008;DHT22;40902;45.116;21.296;2023-01-19T15:09:05;256.40;2252.80
55008;DHT22;40902;45.116;21.296;2023-01-19T15:11:34;256.20;2252.80
55008;DHT22;40902;45.116;21.296;2023-01-19T15:14:00;256.00;2252.80
55008;DHT22;40902;45.116;21.296;2023-01-19T15:16:28;231.30;2252.80
55008;DHT22;40902;45.116;21.296;2023-01-19T15:18:55;231.20;2252.80
55008;DHT22;40902;45.116;21.296;2023-01-19T15:21:21;231.30;2252.80
55008;DHT22;40902;45.116;21.296;2023-01-19T15:23:48;230.90;2252.80
55008;DHT22;40902;45.116;21.296;2023-01-19T15:26:17;230.90;2252.80
55008;DHT22;40902;45.116;21.296;2023-01-19T15:28:44;230.90;2252.80
55008;DHT22;40902;45.116;21.296;2023-01-19T15:31:21;230.90;2252.80
55008;DHT22;40902;45.116;21.296;2023-01-19T15:33:47;230.80;2252.80
55008;DHT22;40902;45.116;21.296;2023-01-19T15:36:18;230.80;2252.80
55008;DHT22;40902;45.116;21.296;2023-01-19T15:38:45;230.90;2252.80
55008;DHT22;40902;45.116;21.296;2023-01-19T15:41:24;230.80;2252.80
55008;DHT22;40902;45.116;21.296;2023-01-19T15:43:50;230.60;2252.80
55008;DHT22;40902;45.116;21.296;2023-01-19T15:46:18;230.70;2252.80
55008;DHT22;40902;45.116;21.296;2023-01-19T15:48:46;230.60;2252.80
55008;DHT22;40902;45.116;21.296;2023-01-19T15:51:12;230.40;2252.80
55008;DHT22;40902;45.116;21.296;2023-01-19T15:53:39;205.70;2252.80
55008;DHT22;40902;45.116;21.296;2023-01-19T15:56:10;230.40;2252.80
55008;DHT22;40902;45.116;21.296;2023-01-19T15:58:37;230.40;2252.80
55008;DHT22;40902;45.116;21.296;2023-01-19T16:01:03;230.50;2252.80
55008;DHT22;40902;45.116;21.296;2023-01-19T16:03:29;230.60;2252.80
55008;DHT22;40902;45.116;21.296;2023-01-19T16:05:54;230.60;2252.80
55008;DHT22;40902;45.116;21.296;2023-01-19T16:08:23;230.60;2252.80
55008;DHT22;40902;45.116;21.296;2023-01-19T16:10:49;230.60;2252.80
55008;DHT22;40902;45.116;21.296;2023-01-19T16:13:15;230.70;2252.80
55008;DHT22;40902;45.116;21.296;2023-01-19T16:15:41;230.60;2252.80
55008;DHT22;40902;45.116;21.296;2023-01-19T16:18:07;230.60;2252.80
55008;DHT22;40902;45.116;21.296;2023-01-19T16:20:32;230.40;2252.80
55008;DHT22;40902;45.116;21.296;2023-01-19T16:22:58;230.40;2252.80
55008;DHT22;40902;45.116;21.296;2023-01-19T16:25:25;205.70;2252.80
55008;DHT22;40902;45.116;21.296;2023-01-19T16:27:53;205.70;2252.80
55008;DHT22;40902;45.116;21.296;2023-01-19T16:30:18;205.60;2252.80